sensor_id;sensor_type;location;lat;lon;timestamp;pressure;altitude;pressure_sealevel;temperature;humidity
18678;BME280;9469;51.114;13.914;2023-04-19T00:00:56;99570.69;;;9.96;100.00
18678;BME280;9469;51.114;13.914;2023-04-19T00:06:05;99569.53;;;10.17;100.00
18678;BME280;9469;51.114;13.914;2023-04-19T00:11:11;99564.38;;;9.87;100.00
18678;BME280;9469;51.114;13.914;2023-04-19T00:16:16;99558.44;;;10.00;100.00
18678;BME280;9469;51.114;13.914;2023-04-19T00:21:25;99552.41;;;9.84;100.00
18678;BME280;9469;51.114;13.914;2023-04-19T00:26:30;99549.31;;;9.72;100.00
18678;BME280;9469;51.114;13.914;2023-04-19T00:31:35;99552.81;;;9.58;100.00
18678;BME280;9469;51.114;13.914;2023-04-19T00:36:43;99545.34;;;9.70;100.00
18678;BME280;9469;51.114;13.914;2023-04-19T00:41:48;99544.84;;;9.63;100.00
18678;BME280;9469;51.114;13.914;2023-04-19T00:46:54;99535.84;;;9.54;100.00
18678;BME280;9469;51.114;13.914;2023-04-19T00:52:06;99533.53;;;9.32;100.00
18678;BME280;9469;51.114;13.914;2023-04-19T00:57:11;99533.53;;;9.32;100.00
18678;BME280;9469;51.114;13.914;2023-04-19T01:02:17;99523.16;;;9.41;100.00
18678;BME280;9469;51.114;13.914;2023-04-19T01:07:26;99535.44;;;9.26;100.00
18678;BME280;9469;51.114;13.914;2023-04-19T01:12:32;99531.47;;;9.19;100.00
18678;BME280;9469;51.114;13.914;2023-04-19T01:17:37;99529.66;;;9.04;100.00
18678;BME280;9469;51.114;13.914;2023-04-19T01:22:46;99521.69;;;9.04;100.00
18678;BME280;9469;51.114;13.914;2023-04-19T01:27:54;99510.88;;;8.76;100.00
18678;BME280;9469;51.114;13.914;2023-04-19T01:32:59;99519.06;;;8.89;100.00
18678;BME280;9469;51.114;13.914;2023-04-19T01:38:07;99503.94;;;9.00;100.00
18678;BME280;9469;51.114;13.914;2023-04-19T01:43:16;99499.66;;;9.09;100.00
18678;BME280;9469;51.114;13.914;2023-04-19T01:48:21;99500.66;;;9.23;100.00
18678;BME280;9469;51.114;13.914;2023-04-19T01:53:30;99503.59;;;9.21;100.00
18678;BME280;9469;51.114;13.914;2023-04-19T01:58:35;99495.03;;;9.34;100.00
18678;BME280;9469;51.114;13.914;2023-04-19T02:03:41;99490.88;;;9.13;100.00
18678;BME280;9469;51.114;13.914;2023-04-19T02:08:49;99497.53;;;9.01;100.00
18678;BME280;9469;51.114;13.914;2023-04-19T02:13:54;99486.09;;;9.15;100.00
18678;BME280;9469;51.114;13.914;2023-04-19T02:19:01;99488.25;;;9.08;100.00
18678;BME280;9469;51.114;13.914;2023-04-19T02:24:10;99491.78;;;8.74;100.00
18678;BME280;9469;51.114;13.914;2023-04-19T02:29:16;99487.28;;;8.79;100.00
18678;BME280;9469;51.114;13.914;2023-04-19T02:34:26;99481.97;;;8.74;100.00
18678;BME280;9469;51.114;13.914;2023-04-19T02:39:36;99484.03;;;8.97;100.00
18678;BME280;9469;51.114;13.914;2023-04-19T02:44:42;99479.31;;;8.79;100.00
18678;BME280;9469;51.114;13.914;2023-04-19T02:49:50;99470.78;;;8.82;100.00
18678;BME280;9469;51.114;13.914;2023-04-19T02:54:59;99474.25;;;8.83;100.00
18678;BME280;9469;51.114;13.914;2023-04-19T03:00:08;99462.94;;;8.27;100.00
18678;BME280;9469;51.114;13.914;2023-04-19T03:05:25;99459.19;;;8.68;100.00
18678;BME280;9469;51.114;13.914;2023-04-19T03:10:33;99457.34;;;8.63;100.00
18678;BME280;9469;51.114;13.914;2023-04-19T03:15:38;99455.44;;;8.79;100.00
18678;BME280;9469;51.114;13.914;2023-04-19T03:20:45;99444.13;;;8.38;100.00
18678;BME280;9469;51.114;13.914;2023-04-19T03:25:54;99441.94;;;8.60;100.00
18678;BME280;9469;51.114;13.914;2023-04-19T03:31:09;99437.25;;;8.27;100.00
18678;BME280;9469;51.114;13.914;2023-04-19T03:36:14;99435.88;;;8.40;100.00
18678;BME280;9469;51.114;13.914;2023-04-19T03:41:24;99430.06;;;8.13;100.00
18678;BME280;9469;51.114;13.914;2023-04-19T03:46:40;99427.44;;;7.97;100.00
18678;BME280;9469;51.114;13.914;2023-04-19T03:51:49;99419.47;;;8.18;100.00
18678;BME280;9469;51.114;13.914;2023-04-19T03:56:57;99419.44;;;7.67;100.00
18678;BME280;9469;51.114;13.914;2023-04-19T04:02:05;99418.16;;;7.90;100.00
18678;BME280;9469;51.114;13.914;2023-04-19T04:07:11;99429.53;;;8.06;100.00
18678;BME280;9469;51.114;13.914;2023-04-19T04:12:19;99426.59;;;8.17;100.00
18678;BME280;9469;51.114;13.914;2023-04-19T04:17:27;99439.06;;;7.96;100.00
18678;BME280;9469;51.114;13.914;2023-04-19T04:22:34;99437.69;;;7.49;100.00
18678;BME280;9469;51.114;13.914;2023-04-19T04:27:44;99436.38;;;7.41;100.00
18678;BME280;9469;51.114;13.914;2023-04-19T04:32:54;99430.31;;;7.81;100.00
18678;BME280;9469;51.114;13.914;2023-04-19T04:38:01;99441.13;;;7.44;100.00
18678;BME280;9469;51.114;13.914;2023-04-19T04:43:27;99435.34;;;7.57;100.00
18678;BME280;9469;51.114;13.914;2023-04-19T04:48:33;99417.91;;;9.11;100.00
18678;BME280;9469;51.114;13.914;2023-04-19T04:53:40;99423.66;;;9.67;99.24
18678;BME280;9469;51.114;13.914;2023-04-19T04:58:52;99416.44;;;11.85;86.82
18678;BME280;9469;51.114;13.914;2023-04-19T05:04:10;99412.06;;;12.81;80.69
18678;BME280;9469;51.114;13.914;2023-04-19T05:09:16;99420.56;;;12.83;76.89
18678;BME280;9469;51.114;13.914;2023-04-19T05:14:25;99417.38;;;13.35;75.32
18678;BME280;9469;51.114;13.914;2023-04-19T05:19:31;99432.94;;;10.13;87.33
18678;BME280;9469;51.114;13.914;2023-04-19T05:24:40;99419.19;;;12.72;77.54
18678;BME280;9469;51.114;13.914;2023-04-19T05:29:55;99424.34;;;9.44;85.81
18678;BME280;9469;51.114;13.914;2023-04-19T05:35:07;99425.03;;;8.26;85.09
18678;BME280;9469;51.114;13.914;2023-04-19T05:40:14;99420.16;;;9.32;83.48
18678;BME280;9469;51.114;13.914;2023-04-19T05:45:24;99418.81;;;8.86;84.09
18678;BME280;9469;51.114;13.914;2023-04-19T05:50:32;99426.09;;;8.45;85.81
18678;BME280;9469;51.114;13.914;2023-04-19T05:56:08;99411.00;;;7.90;82.56
18678;BME280;9469;51.114;13.914;2023-04-19T06:01:16;99426.84;;;8.51;81.71
18678;BME280;9469;51.114;13.914;2023-04-19T06:06:23;99414.22;;;9.51;69.75
18678;BME280;9469;51.114;13.914;2023-04-19T06:11:29;99402.00;;;12.05;63.10
18678;BME280;9469;51.114;13.914;2023-04-19T06:16:50;99381.34;;;15.08;57.34
18678;BME280;9469;51.114;13.914;2023-04-19T06:21:57;99405.72;;;9.54;66.85
18678;BME280;9469;51.114;13.914;2023-04-19T06:27:05;99413.53;;;10.65;67.00
18678;BME280;9469;51.114;13.914;2023-04-19T06:32:19;99406.34;;;14.78;57.80
18678;BME280;9469;51.114;13.914;2023-04-19T06:37:25;99414.88;;;14.89;54.49
18678;BME280;9469;51.114;13.914;2023-04-19T06:42:30;99419.22;;;13.48;56.97
18678;BME280;9469;51.114;13.914;2023-04-19T06:47:37;99406.78;;;15.97;53.21
18678;BME280;9469;51.114;13.914;2023-04-19T06:52:43;99385.09;;;18.18;50.15
18678;BME280;9469;51.114;13.914;2023-04-19T06:57:48;99380.16;;;15.92;51.07
18678;BME280;9469;51.114;13.914;2023-04-19T07:02:56;99378.56;;;16.54;50.41
18678;BME280;9469;51.114;13.914;2023-04-19T07:08:02;99371.94;;;16.52;51.06
18678;BME280;9469;51.114;13.914;2023-04-19T07:13:07;99356.75;;;19.05;48.17
18678;BME280;9469;51.114;13.914;2023-04-19T07:18:17;99354.06;;;17.88;48.81
18678;BME280;9469;51.114;13.914;2023-04-19T07:23:22;99347.25;;;18.59;47.85
18678;BME280;9469;51.114;13.914;2023-04-19T07:28:28;99352.06;;;15.29;53.08
18678;BME280;9469;51.114;13.914;2023-04-19T07:33:36;99354.81;;;14.81;54.47
18678;BME280;9469;51.114;13.914;2023-04-19T07:38:41;99344.78;;;14.08;55.78
18678;BME280;9469;51.114;13.914;2023-04-19T07:43:46;99341.38;;;14.47;55.30
18678;BME280;9469;51.114;13.914;2023-04-19T07:48:54;99345.69;;;14.82;54.66
18678;BME280;9469;51.114;13.914;2023-04-19T07:54:00;99331.56;;;15.67;53.34
18678;BME280;9469;51.114;13.914;2023-04-19T07:59:17;99331.13;;;15.57;52.88
18678;BME280;9469;51.114;13.914;2023-04-19T08:04:26;99328.78;;;16.57;52.63
18678;BME280;9469;51.114;13.914;2023-04-19T08:09:35;99313.84;;;17.38;52.42
18678;BME280;9469;51.114;13.914;2023-04-19T08:14:41;99316.09;;;16.66;53.17
18678;BME280;9469;51.114;13.914;2023-04-19T08:20:10;99316.94;;;16.58;54.05
18678;BME280;9469;51.114;13.914;2023-04-19T08:25:16;99324.28;;;15.94;54.31
18678;BME280;9469;51.114;13.914;2023-04-19T08:30:25;99324.16;;;15.13;56.64
18678;BME280;9469;51.114;13.914;2023-04-19T08:35:37;99314.50;;;14.78;56.55
18678;BME280;9469;51.114;13.914;2023-04-19T08:40:46;99321.91;;;13.72;57.83
18678;BME280;9469;51.114;13.914;2023-04-19T08:45:56;99320.75;;;13.86;61.01
18678;BME280;9469;51.114;13.914;2023-04-19T08:51:10;99309.81;;;14.05;60.71
18678;BME280;9469;51.114;13.914;2023-04-19T08:56:18;99301.38;;;14.59;60.90
18678;BME280;9469;51.114;13.914;2023-04-19T09:01:36;99295.19;;;14.42;60.88
18678;BME280;9469;51.114;13.914;2023-04-19T09:06:47;99290.84;;;14.63;61.70
18678;BME280;9469;51.114;13.914;2023-04-19T09:11:53;99302.31;;;13.32;63.80
18678;BME280;9469;51.114;13.914;2023-04-19T09:17:11;99287.59;;;13.65;63.94
18678;BME280;9469;51.114;13.914;2023-04-19T09:22:20;99284.13;;;13.42;64.21
18678;BME280;9469;51.114;13.914;2023-04-19T09:27:30;99286.13;;;13.01;65.80
18678;BME280;9469;51.114;13.914;2023-04-19T09:32:47;99289.72;;;12.20;69.03
18678;BME280;9469;51.114;13.914;2023-04-19T09:38:01;99277.94;;;11.80;68.95
18678;BME280;9469;51.114;13.914;2023-04-19T09:43:08;99275.66;;;11.87;68.23
18678;BME280;9469;51.114;13.914;2023-04-19T09:48:33;99277.97;;;12.48;68.80
18678;BME280;9469;51.114;13.914;2023-04-19T09:53:41;99276.19;;;12.30;68.43
18678;BME280;9469;51.114;13.914;2023-04-19T09:58:47;99268.66;;;12.95;67.04
18678;BME280;9469;51.114;13.914;2023-04-19T10:04:06;99275.41;;;12.92;65.06
18678;BME280;9469;51.114;13.914;2023-04-19T10:09:41;99259.66;;;12.01;66.27
18678;BME280;9469;51.114;13.914;2023-04-19T10:14:50;99261.63;;;11.49;68.71
18678;BME280;9469;51.114;13.914;2023-04-19T10:19:59;99259.56;;;11.79;66.80
18678;BME280;9469;51.114;13.914;2023-04-19T10:25:14;99262.63;;;11.86;68.47
18678;BME280;9469;51.114;13.914;2023-04-19T10:30:24;99238.56;;;13.70;65.67
18678;BME280;9469;51.114;13.914;2023-04-19T10:35:36;99257.06;;;13.00;64.71
18678;BME280;9469;51.114;13.914;2023-04-19T10:41:02;99256.34;;;11.31;67.88
18678;BME280;9469;51.114;13.914;2023-04-19T10:46:35;99251.31;;;12.21;67.44
18678;BME280;9469;51.114;13.914;2023-04-19T10:51:49;99236.19;;;12.03;66.50
18678;BME280;9469;51.114;13.914;2023-04-19T10:57:00;99234.31;;;12.80;66.05
18678;BME280;9469;51.114;13.914;2023-04-19T11:02:30;99237.56;;;12.14;66.07
18678;BME280;9469;51.114;13.914;2023-04-19T11:07:40;99220.97;;;13.02;63.89
18678;BME280;9469;51.114;13.914;2023-04-19T11:12:50;99223.38;;;11.59;66.18
18678;BME280;9469;51.114;13.914;2023-04-19T11:18:00;99216.63;;;11.80;66.87
18678;BME280;9469;51.114;13.914;2023-04-19T11:23:17;99216.94;;;11.46;66.39
18678;BME280;9469;51.114;13.914;2023-04-19T11:28:34;99200.31;;;11.22;66.74
18678;BME280;9469;51.114;13.914;2023-04-19T11:33:42;99208.31;;;11.04;66.20
18678;BME280;9469;51.114;13.914;2023-04-19T11:38:51;99204.38;;;11.33;66.82
18678;BME280;9469;51.114;13.914;2023-04-19T11:43:59;99213.88;;;10.70;69.77
18678;BME280;9469;51.114;13.914;2023-04-19T11:49:05;99210.66;;;10.54;71.71
18678;BME280;9469;51.114;13.914;2023-04-19T11:54:16;99206.19;;;11.06;70.24
18678;BME280;9469;51.114;13.914;2023-04-19T11:59:25;99202.84;;;11.14;69.75
18678;BME280;9469;51.114;13.914;2023-04-19T12:04:34;99199.06;;;11.01;68.75
18678;BME280;9469;51.114;13.914;2023-04-19T12:09:47;99203.66;;;10.96;70.55
18678;BME280;9469;51.114;13.914;2023-04-19T12:14:57;99199.66;;;10.79;71.86
18678;BME280;9469;51.114;13.914;2023-04-19T12:20:09;99188.31;;;10.55;72.84
18678;BME280;9469;51.114;13.914;2023-04-19T12:25:14;99178.13;;;11.86;69.57
18678;BME280;9469;51.114;13.914;2023-04-19T12:30:26;99180.34;;;12.34;67.77
18678;BME280;9469;51.114;13.914;2023-04-19T12:35:32;99173.88;;;12.84;66.43
18678;BME280;9469;51.114;13.914;2023-04-19T12:40:39;99169.09;;;11.55;69.40
18678;BME280;9469;51.114;13.914;2023-04-19T12:45:51;99167.66;;;10.85;72.41
18678;BME280;9469;51.114;13.914;2023-04-19T12:51:01;99164.38;;;10.55;75.11
18678;BME280;9469;51.114;13.914;2023-04-19T12:56:07;99145.19;;;10.91;75.16
18678;BME280;9469;51.114;13.914;2023-04-19T13:01:19;99140.47;;;10.88;74.86
18678;BME280;9469;51.114;13.914;2023-04-19T13:06:27;99140.50;;;11.74;72.02
18678;BME280;9469;51.114;13.914;2023-04-19T13:11:33;99132.72;;;11.91;72.38
18678;BME280;9469;51.114;13.914;2023-04-19T13:16:41;99122.41;;;11.30;70.62
18678;BME280;9469;51.114;13.914;2023-04-19T13:21:49;99128.38;;;11.68;70.80
18678;BME280;9469;51.114;13.914;2023-04-19T13:26:56;99130.72;;;10.97;73.59
18678;BME280;9469;51.114;13.914;2023-04-19T13:32:08;99124.16;;;10.57;75.20
18678;BME280;9469;51.114;13.914;2023-04-19T13:37:13;99112.53;;;10.53;74.95
18678;BME280;9469;51.114;13.914;2023-04-19T13:42:19;99112.53;;;11.31;72.81
18678;BME280;9469;51.114;13.914;2023-04-19T13:47:27;99105.50;;;11.08;73.37
18678;BME280;9469;51.114;13.914;2023-04-19T13:52:34;99151.66;;;9.15;91.77
18678;BME280;9469;51.114;13.914;2023-04-19T13:57:40;99157.72;;;7.94;100.00
18678;BME280;9469;51.114;13.914;2023-04-19T14:02:48;99163.09;;;7.79;100.00
18678;BME280;9469;51.114;13.914;2023-04-19T14:07:54;99155.00;;;8.10;100.00
18678;BME280;9469;51.114;13.914;2023-04-19T14:13:02;99145.31;;;8.44;100.00
18678;BME280;9469;51.114;13.914;2023-04-19T14:18:13;99143.81;;;8.28;100.00
18678;BME280;9469;51.114;13.914;2023-04-19T14:23:18;99138.28;;;8.19;100.00
18678;BME280;9469;51.114;13.914;2023-04-19T14:28:25;99137.47;;;8.19;100.00
18678;BME280;9469;51.114;13.914;2023-04-19T14:33:36;99129.97;;;8.41;100.00
18678;BME280;9469;51.114;13.914;2023-04-19T14:38:43;99141.56;;;7.96;100.00
18678;BME280;9469;51.114;13.914;2023-04-19T14:43:49;99141.19;;;7.59;100.00
18678;BME280;9469;51.114;13.914;2023-04-19T14:48:58;99149.94;;;7.49;100.00
18678;BME280;9469;51.114;13.914;2023-04-19T14:54:07;99154.19;;;7.55;100.00
18678;BME280;9469;51.114;13.914;2023-04-19T14:59:15;99147.75;;;7.76;100.00
18678;BME280;9469;51.114;13.914;2023-04-19T15:04:23;99157.94;;;7.39;100.00
18678;BME280;9469;51.114;13.914;2023-04-19T15:09:29;99149.44;;;7.42;100.00
18678;BME280;9469;51.114;13.914;2023-04-19T15:14:38;99143.63;;;7.40;100.00
18678;BME280;9469;51.114;13.914;2023-04-19T15:19:46;99141.94;;;7.69;100.00
18678;BME280;9469;51.114;13.914;2023-04-19T15:24:53;99143.69;;;7.99;100.00
18678;BME280;9469;51.114;13.914;2023-04-19T15:29:58;99127.66;;;8.29;100.00
18678;BME280;9469;51.114;13.914;2023-04-19T15:35:09;99131.91;;;8.20;100.00
18678;BME280;9469;51.114;13.914;2023-04-19T15:40:14;99127.13;;;8.22;100.00
18678;BME280;9469;51.114;13.914;2023-04-19T15:45:20;99134.31;;;8.17;100.00
18678;BME280;9469;51.114;13.914;2023-04-19T15:50:31;99125.94;;;7.94;100.00
18678;BME280;9469;51.114;13.914;2023-04-19T15:55:38;99136.75;;;8.08;100.00
18678;BME280;9469;51.114;13.914;2023-04-19T16:00:44;99117.88;;;8.20;100.00
18678;BME280;9469;51.114;13.914;2023-04-19T16:05:53;99126.59;;;8.25;100.00
18678;BME280;9469;51.114;13.914;2023-04-19T16:10:58;99125.41;;;8.46;100.00
18678;BME280;9469;51.114;13.914;2023-04-19T16:16:07;99115.16;;;8.68;100.00
18678;BME280;9469;51.114;13.914;2023-04-19T16:21:17;99116.91;;;8.49;100.00
18678;BME280;9469;51.114;13.914;2023-04-19T16:26:24;99109.84;;;8.35;100.00
18678;BME280;9469;51.114;13.914;2023-04-19T16:31:30;99113.91;;;7.58;100.00
18678;BME280;9469;51.114;13.914;2023-04-19T16:36:40;99112.63;;;8.10;100.00
18678;BME280;9469;51.114;13.914;2023-04-19T16:41:48;99109.47;;;8.51;100.00
18678;BME280;9469;51.114;13.914;2023-04-19T16:46:55;99108.84;;;8.64;100.00
18678;BME280;9469;51.114;13.914;2023-04-19T16:52:05;99112.34;;;8.55;100.00
18678;BME280;9469;51.114;13.914;2023-04-19T16:57:11;99098.34;;;8.49;100.00
18678;BME280;9469;51.114;13.914;2023-04-19T17:02:17;99093.72;;;8.31;100.00
18678;BME280;9469;51.114;13.914;2023-04-19T17:07:25;99100.75;;;8.46;100.00
18678;BME280;9469;51.114;13.914;2023-04-19T17:12:33;99101.66;;;7.77;100.00
18678;BME280;9469;51.114;13.914;2023-04-19T17:17:38;99099.06;;;7.67;100.00
18678;BME280;9469;51.114;13.914;2023-04-19T17:22:47;99085.69;;;7.92;100.00
18678;BME280;9469;51.114;13.914;2023-04-19T17:27:53;99098.59;;;7.55;100.00
18678;BME280;9469;51.114;13.914;2023-04-19T17:32:58;99083.91;;;7.78;100.00
18678;BME280;9469;51.114;13.914;2023-04-19T17:38:06;99088.06;;;7.94;100.00
18678;BME280;9469;51.114;13.914;2023-04-19T17:43:14;99093.94;;;7.12;100.00
18678;BME280;9469;51.114;13.914;2023-04-19T17:48:21;99095.38;;;7.58;100.00
18678;BME280;9469;51.114;13.914;2023-04-19T17:53:28;99088.31;;;7.34;100.00
18678;BME280;9469;51.114;13.914;2023-04-19T17:58:33;99088.03;;;7.50;100.00
18678;BME280;9469;51.114;13.914;2023-04-19T18:03:39;99091.25;;;7.32;100.00
18678;BME280;9469;51.114;13.914;2023-04-19T18:08:49;99106.91;;;7.18;100.00
18678;BME280;9469;51.114;13.914;2023-04-19T18:13:57;99106.56;;;7.35;100.00
18678;BME280;9469;51.114;13.914;2023-04-19T18:19:02;99098.63;;;7.40;100.00
18678;BME280;9469;51.114;13.914;2023-04-19T18:24:11;99102.41;;;7.19;100.00
18678;BME280;9469;51.114;13.914;2023-04-19T18:29:16;99092.06;;;7.33;100.00
18678;BME280;9469;51.114;13.914;2023-04-19T18:34:26;99089.66;;;7.36;100.00
18678;BME280;9469;51.114;13.914;2023-04-19T18:39:38;99099.72;;;7.24;100.00
18678;BME280;9469;51.114;13.914;2023-04-19T18:44:43;99094.69;;;7.28;100.00
18678;BME280;9469;51.114;13.914;2023-04-19T18:49:56;99100.31;;;6.91;100.00
18678;BME280;9469;51.114;13.914;2023-04-19T18:55:09;99094.47;;;7.14;100.00
18678;BME280;9469;51.114;13.914;2023-04-19T19:00:16;99097.13;;;6.99;100.00
18678;BME280;9469;51.114;13.914;2023-04-19T19:05:24;99103.25;;;6.84;100.00
18678;BME280;9469;51.114;13.914;2023-04-19T19:10:32;99102.97;;;6.50;100.00
18678;BME280;9469;51.114;13.914;2023-04-19T19:15:58;99108.25;;;6.45;100.00
18678;BME280;9469;51.114;13.914;2023-04-19T19:21:07;99105.88;;;6.44;100.00
18678;BME280;9469;51.114;13.914;2023-04-19T19:26:15;99098.19;;;6.42;100.00
18678;BME280;9469;51.114;13.914;2023-04-19T19:31:23;99092.94;;;6.53;100.00
18678;BME280;9469;51.114;13.914;2023-04-19T19:36:33;99104.53;;;6.51;100.00
18678;BME280;9469;51.114;13.914;2023-04-19T19:41:45;99098.47;;;6.31;100.00
18678;BME280;9469;51.114;13.914;2023-04-19T19:46:56;99113.53;;;6.66;100.00
18678;BME280;9469;51.114;13.914;2023-04-19T19:52:02;99106.16;;;6.58;100.00
18678;BME280;9469;51.114;13.914;2023-04-19T19:57:11;99103.25;;;6.59;100.00
18678;BME280;9469;51.114;13.914;2023-04-19T20:02:41;99104.53;;;6.51;100.00
18678;BME280;9469;51.114;13.914;2023-04-19T20:08:07;99105.09;;;6.59;100.00
18678;BME280;9469;51.114;13.914;2023-04-19T20:13:16;99098.22;;;6.68;100.00
18678;BME280;9469;51.114;13.914;2023-04-19T20:18:23;99094.78;;;6.77;100.00
18678;BME280;9469;51.114;13.914;2023-04-19T20:23:36;99101.84;;;7.22;100.00
18678;BME280;9469;51.114;13.914;2023-04-19T20:28:46;99091.03;;;7.18;100.00
18678;BME280;9469;51.114;13.914;2023-04-19T20:33:54;99102.66;;;7.22;100.00
18678;BME280;9469;51.114;13.914;2023-04-19T20:39:01;99094.94;;;7.41;100.00
18678;BME280;9469;51.114;13.914;2023-04-19T20:44:13;99099.47;;;7.15;100.00
18678;BME280;9469;51.114;13.914;2023-04-19T20:49:22;99087.00;;;7.31;100.00
18678;BME280;9469;51.114;13.914;2023-04-19T20:54:27;99095.69;;;7.47;100.00
18678;BME280;9469;51.114;13.914;2023-04-19T20:59:37;99098.16;;;7.28;100.00
18678;BME280;9469;51.114;13.914;2023-04-19T21:04:43;99091.25;;;7.32;100.00
18678;BME280;9469;51.114;13.914;2023-04-19T21:09:48;99098.16;;;7.18;100.00
18678;BME280;9469;51.114;13.914;2023-04-19T21:14:56;99088.84;;;7.36;100.00
18678;BME280;9469;51.114;13.914;2023-04-19T21:20:02;99092.81;;;7.43;100.00
18678;BME280;9469;51.114;13.914;2023-04-19T21:25:15;99088.84;;;7.31;100.00
18678;BME280;9469;51.114;13.914;2023-04-19T21:30:24;99093.88;;;7.37;100.00
18678;BME280;9469;51.114;13.914;2023-04-19T21:35:32;99089.63;;;7.46;100.00
18678;BME280;9469;51.114;13.914;2023-04-19T21:40:38;99092.63;;;7.09;100.00
18678;BME280;9469;51.114;13.914;2023-04-19T21:45:46;99091.25;;;7.27;100.00
18678;BME280;9469;51.114;13.914;2023-04-19T21:50:51;99089.13;;;7.39;100.00
18678;BME280;9469;51.114;13.914;2023-04-19T21:55:56;99093.19;;;6.26;100.00
18678;BME280;9469;51.114;13.914;2023-04-19T22:01:06;99093.97;;;6.26;100.00
18678;BME280;9469;51.114;13.914;2023-04-19T22:06:17;99090.56;;;6.31;100.00
18678;BME280;9469;51.114;13.914;2023-04-19T22:11:22;99096.06;;;6.14;100.00
18678;BME280;9469;51.114;13.914;2023-04-19T22:16:49;99094.22;;;6.25;100.00
18678;BME280;9469;51.114;13.914;2023-04-19T22:22:01;99098.72;;;6.29;100.00
18678;BME280;9469;51.114;13.914;2023-04-19T22:27:06;99092.06;;;5.97;100.00
18678;BME280;9469;51.114;13.914;2023-04-19T22:32:14;99098.41;;;5.39;100.00
18678;BME280;9469;51.114;13.914;2023-04-19T22:37:27;99083.34;;;5.34;100.00
18678;BME280;9469;51.114;13.914;2023-04-19T22:42:33;99092.38;;;5.48;100.00
18678;BME280;9469;51.114;13.914;2023-04-19T22:47:43;99093.31;;;5.27;100.00
18678;BME280;9469;51.114;13.914;2023-04-19T22:52:58;99094.16;;;5.33;100.00
18678;BME280;9469;51.114;13.914;2023-04-19T22:58:04;99090.13;;;5.20;100.00
18678;BME280;9469;51.114;13.914;2023-04-19T23:03:12;99091.50;;;5.28;100.00
18678;BME280;9469;51.114;13.914;2023-04-19T23:08:18;99084.72;;;6.19;100.00
18678;BME280;9469;51.114;13.914;2023-04-19T23:13:24;99081.25;;;6.03;100.00
18678;BME280;9469;51.114;13.914;2023-04-19T23:18:32;99085.94;;;5.29;100.00
18678;BME280;9469;51.114;13.914;2023-04-19T23:23:42;99087.81;;;5.29;100.00
18678;BME280;9469;51.114;13.914;2023-04-19T23:28:48;99091.19;;;5.19;100.00
18678;BME280;9469;51.114;13.914;2023-04-19T23:33:57;99089.16;;;5.36;100.00
18678;BME280;9469;51.114;13.914;2023-04-19T23:39:04;99085.88;;;5.14;100.00
18678;BME280;9469;51.114;13.914;2023-04-19T23:44:09;99092.44;;;5.12;100.00
18678;BME280;9469;51.114;13.914;2023-04-19T23:49:17;99096.13;;;4.69;100.00
18678;BME280;9469;51.114;13.914;2023-04-19T23:54:22;99090.84;;;4.69;100.00
18678;BME280;9469;51.114;13.914;2023-04-19T23:59:27;99085.13;;;4.82;100.00
